createdAt,value
2023-04-19T00:00:19.864Z,103226.78
2023-04-19T00:02:49.623Z,103229.81
2023-04-19T00:05:16.771Z,103231.75
2023-04-19T00:07:43.659Z,103217.44
2023-04-19T00:10:10.835Z,103207.25
2023-04-19T00:12:37.778Z,103222.69
2023-04-19T00:15:06.121Z,103216.19
2023-04-19T00:17:34.637Z,103218.47
2023-04-19T00:20:01.698Z,103152.72
2023-04-19T00:22:28.797Z,103221.03
2023-04-19T00:24:55.931Z,103212.13
2023-04-19T00:27:23.363Z,103214.03
2023-04-19T00:29:50.496Z,103213.06
2023-04-19T00:32:17.753Z,103216.69
2023-04-19T00:34:44.867Z,103224.97
2023-04-19T00:37:11.863Z,103208.66
2023-04-19T00:39:38.722Z,103209.25
2023-04-19T00:42:05.834Z,103212.25
2023-04-19T00:44:32.852Z,103208.19
2023-04-19T00:47:00.687Z,103204.66
2023-04-19T00:49:28.304Z,103206.56
2023-04-19T00:51:55.162Z,103201.06
2023-04-19T00:54:22.661Z,103209.78
2023-04-19T00:56:49.945Z,103203.41
2023-04-19T00:59:17.746Z,103204.50
2023-04-19T01:01:44.950Z,103206.63
2023-04-19T01:04:12.262Z,103213.63
2023-04-19T01:06:40.495Z,103206.00
2023-04-19T01:09:07.490Z,103204.34
2023-04-19T01:11:34.860Z,103199.88
2023-04-19T01:14:01.736Z,103207.09
2023-04-19T01:16:29.128Z,103210.69
2023-04-19T01:18:56.496Z,103206.66
2023-04-19T01:21:23.469Z,103201.59
2023-04-19T01:23:50.960Z,103203.50
2023-04-19T01:26:19.340Z,103210.44
2023-04-19T01:28:46.397Z,103192.03
2023-04-19T01:31:13.283Z,103205.63
2023-04-19T01:33:40.224Z,103196.69
2023-04-19T01:36:07.740Z,103203.06
2023-04-19T01:38:35.456Z,103204.56
2023-04-19T01:41:02.636Z,103206.03
2023-04-19T01:43:29.605Z,103198.84
2023-04-19T01:45:56.481Z,103205.41
2023-04-19T01:48:23.324Z,103200.97
2023-04-19T01:50:50.465Z,103197.13
2023-04-19T01:53:17.373Z,103197.75
2023-04-19T01:55:44.393Z,103189.94
2023-04-19T01:58:11.307Z,103187.81
2023-04-19T02:00:38.082Z,103187.63
2023-04-19T02:03:05.319Z,103166.88
2023-04-19T02:05:32.326Z,103184.63
2023-04-19T02:07:59.198Z,103182.75
2023-04-19T02:10:26.441Z,103184.44
2023-04-19T02:12:53.851Z,103183.59
2023-04-19T02:15:20.987Z,103185.28
2023-04-19T02:17:48.312Z,103182.31
2023-04-19T02:20:15.298Z,103179.16
2023-04-19T02:22:44.019Z,103180.41
2023-04-19T02:25:11.132Z,103179.38
2023-04-19T02:27:38.127Z,103176.19
2023-04-19T02:30:05.613Z,103174.06
2023-04-19T02:32:32.606Z,103177.66
2023-04-19T02:34:59.776Z,103184.03
2023-04-19T02:37:26.640Z,103163.91
2023-04-19T02:39:53.580Z,103193.13
2023-04-19T02:42:20.668Z,103164.97
2023-04-19T02:44:47.549Z,103185.28
2023-04-19T02:47:14.669Z,103188.03
2023-04-19T02:49:42.832Z,103184.84
2023-04-19T02:52:09.827Z,103179.78
2023-04-19T02:54:36.732Z,103181.03
2023-04-19T02:57:03.817Z,103180.59
2023-04-19T02:59:30.779Z,103177.41
2023-04-19T03:01:57.621Z,103172.53
2023-04-19T03:04:24.567Z,103191.19
2023-04-19T03:06:53.201Z,103186.53
2023-04-19T03:09:20.114Z,103177.19
2023-04-19T03:11:46.993Z,103177.63
2023-04-19T03:14:14.289Z,103182.91
2023-04-19T03:16:41.992Z,103147.53
2023-04-19T03:19:08.989Z,103170.56
2023-04-19T03:21:36.014Z,103167.63
2023-04-19T03:25:14.451Z,103162.97
2023-04-19T03:27:41.389Z,103173.81
2023-04-19T03:30:08.858Z,103164.03
2023-04-19T03:32:35.773Z,103165.34
2023-04-19T03:35:02.733Z,103165.97
2023-04-19T03:37:29.853Z,103161.09
2023-04-19T03:39:56.797Z,103168.94
2023-04-19T03:42:23.885Z,103172.75
2023-04-19T03:44:51.377Z,103161.53
2023-04-19T03:47:18.385Z,103161.53
2023-04-19T03:49:45.194Z,103165.56
2023-04-19T03:52:11.956Z,103152.63
2023-04-19T03:54:38.636Z,103164.28
2023-04-19T03:57:06.253Z,103153.69
2023-04-19T03:59:33.351Z,103159.66
2023-04-19T04:02:00.461Z,103160.06
2023-04-19T04:04:27.793Z,103157.47
2023-04-19T04:06:54.895Z,103167.03
2023-04-19T04:09:21.929Z,103164.25
2023-04-19T04:11:49.009Z,103161.50
2023-04-19T04:14:16.440Z,103160.22
2023-04-19T04:16:44.106Z,103163.41
2023-04-19T04:19:11.203Z,103153.84
2023-04-19T04:21:38.303Z,103156.38
2023-04-19T04:24:05.670Z,103153.44
2023-04-19T04:26:34.168Z,103149.66
2023-04-19T04:29:03.195Z,103155.16
2023-04-19T04:31:30.278Z,103157.19
2023-04-19T04:33:57.249Z,103151.78
2023-04-19T04:36:24.113Z,103156.25
2023-04-19T04:38:51.365Z,103157.06
2023-04-19T04:41:18.267Z,103162.75
2023-04-19T04:43:45.833Z,103157.53
2023-04-19T04:46:12.732Z,103158.03
2023-04-19T04:48:39.564Z,103155.31
2023-04-19T04:51:06.559Z,103158.16
2023-04-19T04:53:33.533Z,103163.63
2023-04-19T04:56:00.469Z,103129.84
2023-04-19T04:58:27.384Z,103141.38
2023-04-19T05:00:54.873Z,103131.66
2023-04-19T05:03:21.846Z,103129.81
2023-04-19T05:05:48.790Z,103136.31
2023-04-19T05:08:15.764Z,103132.66
2023-04-19T05:10:42.731Z,103127.56
2023-04-19T05:13:09.587Z,103118.00
2023-04-19T05:15:36.558Z,103119.50
2023-04-19T05:18:03.585Z,103119.00
2023-04-19T05:20:30.628Z,103109.47
2023-04-19T05:22:58.820Z,103105.63
2023-04-19T05:25:26.028Z,103110.78
2023-04-19T05:27:53.092Z,103118.06
2023-04-19T05:30:20.250Z,103115.06
2023-04-19T05:32:47.459Z,103115.44
2023-04-19T05:35:14.475Z,103115.19
2023-04-19T05:37:41.950Z,103115.53
2023-04-19T05:40:12.711Z,103115.16
2023-04-19T05:42:39.814Z,103111.41
2023-04-19T05:45:07.691Z,103111.03
2023-04-19T05:47:34.677Z,103103.78
2023-04-19T05:50:01.617Z,103113.28
2023-04-19T05:52:28.607Z,103106.22
2023-04-19T05:54:55.740Z,103092.59
2023-04-19T05:57:22.851Z,103101.88
2023-04-19T05:59:49.744Z,103110.19
2023-04-19T06:02:16.922Z,103109.47
2023-04-19T06:04:44.269Z,103105.38
2023-04-19T06:07:26.640Z,103100.47
2023-04-19T06:09:58.415Z,103099.41
2023-04-19T06:12:25.233Z,103095.81
2023-04-19T06:14:52.861Z,103083.03
2023-04-19T06:17:24.802Z,103090.50
2023-04-19T06:19:52.750Z,103087.06
2023-04-19T06:22:19.565Z,103094.94
2023-04-19T06:24:50.250Z,103086.25
2023-04-19T06:27:17.294Z,103082.69
2023-04-19T06:29:44.359Z,103078.53
2023-04-19T06:32:11.190Z,103086.22
2023-04-19T06:34:38.189Z,103070.50
2023-04-19T06:37:05.369Z,103083.38
2023-04-19T06:39:32.572Z,103075.81
2023-04-19T06:41:59.379Z,103079.97
2023-04-19T06:44:26.319Z,103084.66
2023-04-19T06:46:53.224Z,103084.38
2023-04-19T06:49:20.280Z,103077.53
2023-04-19T06:51:47.137Z,103085.31
2023-04-19T06:54:14.125Z,103066.38
2023-04-19T06:56:49.300Z,103067.44
2023-04-19T06:59:19.724Z,103068.69
2023-04-19T07:01:47.752Z,103078.78
2023-04-19T07:04:15.691Z,103068.84
2023-04-19T07:06:42.971Z,103069.44
2023-04-19T07:09:09.867Z,103068.31
2023-04-19T07:11:36.720Z,103061.16
2023-04-19T07:14:03.895Z,103068.34
2023-04-19T07:16:31.229Z,103056.72
2023-04-19T07:18:58.112Z,103062.03
2023-04-19T07:21:28.822Z,103043.41
2023-04-19T07:23:55.733Z,103050.00
2023-04-19T07:26:22.691Z,103053.56
2023-04-19T07:28:50.557Z,103053.25
2023-04-19T07:31:18.902Z,103049.91
2023-04-19T07:33:46.113Z,103048.84
2023-04-19T07:36:13.101Z,103035.91
2023-04-19T07:38:40.220Z,103039.44
2023-04-19T07:41:07.338Z,103031.00
2023-04-19T07:43:34.203Z,103034.75
2023-04-19T07:46:01.644Z,103027.47
2023-04-19T07:48:28.607Z,103046.91
2023-04-19T07:50:55.517Z,103031.63
2023-04-19T07:53:22.484Z,103030.88
2023-04-19T07:55:49.598Z,103033.09
2023-04-19T07:58:16.517Z,103027.66
2023-04-19T08:00:43.576Z,103025.50
2023-04-19T08:03:10.689Z,102978.59
2023-04-19T08:05:37.763Z,103033.16
2023-04-19T08:08:04.919Z,103026.19
2023-04-19T08:10:32.188Z,103028.34
2023-04-19T08:13:05.710Z,103029.13
2023-04-19T08:18:07.618Z,103016.13
2023-04-19T08:20:34.924Z,103014.22
2023-04-19T08:23:07.520Z,103022.63
2023-04-19T08:25:45.490Z,102991.78
2023-04-19T08:28:12.914Z,102998.31
2023-04-19T08:30:40.839Z,103004.31
2023-04-19T08:33:07.783Z,102996.97
2023-04-19T08:35:39.543Z,102984.72
2023-04-19T08:38:06.651Z,102969.03
2023-04-19T08:40:33.691Z,103000.13
2023-04-19T08:43:05.371Z,102975.13
2023-04-19T08:45:33.189Z,102968.03
2023-04-19T08:48:02.582Z,102973.94
2023-04-19T08:50:36.032Z,102978.22
2023-04-19T08:53:23.881Z,102975.72
2023-04-19T08:58:44.471Z,102970.47
2023-04-19T09:01:31.121Z,102976.06
2023-04-19T09:04:10.415Z,102952.41
2023-04-19T09:06:47.405Z,102963.09
2023-04-19T09:11:52.733Z,102948.97
2023-04-19T09:14:21.710Z,102926.81
2023-04-19T09:16:49.465Z,102940.25
2023-04-19T09:19:24.958Z,102931.91
2023-04-19T09:21:54.723Z,102937.44
2023-04-19T09:27:30.425Z,102927.75
2023-04-19T09:29:59.783Z,102942.84
2023-04-19T09:32:27.630Z,102927.16
2023-04-19T09:34:57.104Z,102932.69
2023-04-19T09:37:44.368Z,102923.75
2023-04-19T09:40:25.260Z,102923.22
2023-04-19T09:48:11.738Z,102929.34
2023-04-19T09:51:01.961Z,102913.13
2023-04-19T09:53:35.548Z,102904.44
2023-04-19T09:56:04.300Z,102922.53
2023-04-19T09:58:46.277Z,102921.91
2023-04-19T10:01:19.587Z,102914.88
2023-04-19T10:03:49.548Z,102920.59
2023-04-19T10:08:51.196Z,102894.06
2023-04-19T10:11:22.215Z,102884.59
2023-04-19T10:13:50.995Z,102870.41
2023-04-19T10:16:20.136Z,102858.34
2023-04-19T10:18:50.585Z,102876.50
2023-04-19T10:21:18.170Z,102864.97
2023-04-19T10:23:45.318Z,102870.03
2023-04-19T10:26:12.327Z,102883.34
2023-04-19T10:28:39.177Z,102869.50
2023-04-19T10:31:06.049Z,102853.41
2023-04-19T10:33:38.060Z,102850.63
2023-04-19T10:36:08.852Z,102846.88
2023-04-19T10:38:42.634Z,102845.22
2023-04-19T10:41:15.516Z,102848.53
2023-04-19T10:43:55.899Z,102840.06
2023-04-19T10:46:23.373Z,102854.47
2023-04-19T10:48:58.508Z,102842.25
2023-04-19T10:51:32.924Z,102831.72
2023-04-19T10:54:01.911Z,102843.59
2023-04-19T10:56:34.868Z,102830.41
2023-04-19T10:59:02.019Z,102831.69
2023-04-19T11:01:47.110Z,102841.44
2023-04-19T11:04:16.315Z,102824.94
2023-04-19T11:06:55.232Z,102845.09
2023-04-19T11:09:25.768Z,102830.88
2023-04-19T11:11:54.383Z,102807.63
2023-04-19T11:14:21.886Z,102811.38
2023-04-19T11:16:49.113Z,102822.09
2023-04-19T11:19:17.210Z,102810.22
2023-04-19T11:21:46.984Z,102833.78
2023-04-19T11:24:16.337Z,102826.81
2023-04-19T11:26:46.484Z,102806.28
2023-04-19T11:29:13.807Z,102776.78
2023-04-19T11:31:43.869Z,102798.00
2023-04-19T11:34:10.847Z,102797.06
2023-04-19T11:36:48.182Z,102791.88
2023-04-19T11:39:15.196Z,102817.97
2023-04-19T11:41:44.482Z,102797.72
2023-04-19T11:44:20.412Z,102806.09
2023-04-19T11:47:01.590Z,102793.69
2023-04-19T11:49:36.191Z,102785.56
2023-04-19T11:52:06.559Z,102792.44
2023-04-19T11:54:34.229Z,102779.31
2023-04-19T11:57:06.319Z,102783.06
2023-04-19T11:59:35.433Z,102791.94
2023-04-19T12:02:13.131Z,102771.91
2023-04-19T12:04:41.435Z,102805.78
2023-04-19T12:07:10.756Z,102766.09
2023-04-19T12:09:38.902Z,102785.72
2023-04-19T12:12:07.062Z,102776.03
2023-04-19T12:14:34.484Z,102784.88
2023-04-19T12:17:08.902Z,102797.38
2023-04-19T12:19:44.425Z,102791.84
2023-04-19T12:22:14.623Z,102780.69
2023-04-19T12:24:42.417Z,102778.59
2023-04-19T12:28:14.538Z,102781.59
2023-04-19T12:29:56.855Z,102777.25
2023-04-19T12:32:24.115Z,102778.91
2023-04-19T12:34:51.053Z,102765.25
2023-04-19T12:37:17.951Z,102773.34
2023-04-19T12:39:45.049Z,102789.50
2023-04-19T12:42:11.828Z,102776.53
2023-04-19T12:44:38.641Z,102787.13
2023-04-19T12:47:05.418Z,102787.59
2023-04-19T12:49:32.404Z,102793.50
2023-04-19T12:51:59.080Z,102785.06
2023-04-19T12:54:25.983Z,102789.91
2023-04-19T12:56:53.045Z,102780.50
2023-04-19T12:59:20.083Z,102768.44
2023-04-19T13:01:47.065Z,102774.09
2023-04-19T13:04:17.085Z,102768.44
2023-04-19T13:06:44.404Z,102778.53
2023-04-19T13:09:14.959Z,102774.94
2023-04-19T13:11:42.209Z,102760.78
2023-04-19T13:14:09.125Z,102781.66
2023-04-19T13:16:35.952Z,102793.25
2023-04-19T13:19:02.935Z,102779.28
2023-04-19T13:21:29.793Z,102765.16
2023-04-19T13:23:59.252Z,102770.03
2023-04-19T13:26:26.485Z,102763.09
2023-04-19T13:28:53.259Z,102777.19
2023-04-19T13:31:20.309Z,102766.09
2023-04-19T13:33:47.412Z,102773.25
2023-04-19T13:36:14.464Z,102797.75
2023-04-19T13:38:41.403Z,102769.53
2023-04-19T13:41:08.409Z,102754.44
2023-04-19T13:43:35.480Z,102796.41
2023-04-19T13:46:02.383Z,102773.16
2023-04-19T13:48:29.249Z,102751.09
2023-04-19T13:50:57.222Z,102764.34
2023-04-19T13:53:25.023Z,102766.53
2023-04-19T13:55:52.756Z,102760.63
2023-04-19T13:58:19.820Z,102759.72
2023-04-19T14:00:48.575Z,102763.84
2023-04-19T14:03:15.878Z,102755.25
2023-04-19T14:05:43.346Z,102743.69
2023-04-19T14:08:10.469Z,102744.59
2023-04-19T14:10:37.520Z,102751.69
2023-04-19T14:13:04.448Z,102741.84
2023-04-19T14:15:31.381Z,102762.56
2023-04-19T14:17:58.337Z,102753.66
2023-04-19T14:20:25.843Z,102745.81
2023-04-19T14:22:54.263Z,102734.38
2023-04-19T14:25:21.369Z,102739.63
2023-04-19T14:27:48.427Z,102739.06
2023-04-19T14:30:15.617Z,102727.50
2023-04-19T14:32:42.907Z,102732.94
2023-04-19T14:35:11.541Z,102712.72
2023-04-19T14:37:38.708Z,102727.88
2023-04-19T14:40:06.159Z,102725.56
2023-04-19T14:42:33.073Z,102704.00
2023-04-19T14:44:59.985Z,102704.16
2023-04-19T14:47:26.865Z,102724.78
2023-04-19T14:49:53.917Z,102716.25
2023-04-19T14:52:21.609Z,102721.53
2023-04-19T14:54:48.607Z,102717.63
2023-04-19T14:57:15.749Z,102708.63
2023-04-19T14:59:42.649Z,102701.44
2023-04-19T15:02:11.012Z,102694.38
2023-04-19T15:04:40.842Z,102699.97
2023-04-19T15:07:08.342Z,102707.59
2023-04-19T15:09:35.446Z,102717.03
2023-04-19T15:12:02.449Z,102695.56
2023-04-19T15:14:29.488Z,102703.72
2023-04-19T15:16:56.485Z,102698.44
2023-04-19T15:19:23.511Z,102715.53
2023-04-19T15:21:50.543Z,102707.13
2023-04-19T15:24:17.697Z,102684.84
2023-04-19T15:26:44.729Z,102678.94
2023-04-19T15:29:11.946Z,102697.94
2023-04-19T15:31:39.719Z,102678.09
2023-04-19T15:34:06.732Z,102680.47
2023-04-19T15:36:33.623Z,102667.22
2023-04-19T15:39:00.775Z,102656.97
2023-04-19T15:41:27.696Z,102668.91
2023-04-19T15:43:54.644Z,102662.28
2023-04-19T15:46:21.663Z,102667.16
2023-04-19T15:48:51.579Z,102657.06
2023-04-19T15:51:18.675Z,102680.06
2023-04-19T15:53:48.614Z,102671.66
2023-04-19T15:56:15.767Z,102672.09
2023-04-19T15:58:42.797Z,102675.13
2023-04-19T16:01:13.522Z,102678.03
2023-04-19T16:03:41.679Z,102672.75
2023-04-19T16:06:08.680Z,102665.97
2023-04-19T16:08:35.604Z,102682.19
2023-04-19T16:11:02.604Z,102673.59
2023-04-19T16:13:31.377Z,102675.53
2023-04-19T16:15:58.916Z,102677.88
2023-04-19T16:18:25.637Z,102672.06
2023-04-19T16:20:54.435Z,102676.56
2023-04-19T16:23:21.305Z,102681.31
2023-04-19T16:25:49.626Z,102676.06
2023-04-19T16:28:16.728Z,102688.66
2023-04-19T16:30:45.592Z,102685.88
2023-04-19T16:33:12.486Z,102679.16
2023-04-19T16:35:39.771Z,102668.84
2023-04-19T16:38:07.654Z,102664.38
2023-04-19T16:40:34.752Z,102687.50
2023-04-19T16:43:01.847Z,102673.53
2023-04-19T16:45:28.833Z,102665.09
2023-04-19T16:47:55.976Z,102666.00
2023-04-19T16:50:22.909Z,102667.47
2023-04-19T16:52:49.822Z,102670.25
2023-04-19T16:55:16.886Z,102666.03
2023-04-19T16:57:43.889Z,102674.41
2023-04-19T17:00:11.438Z,102660.78
2023-04-19T17:02:38.779Z,102664.72
2023-04-19T17:05:06.914Z,102660.56
2023-04-19T17:07:33.866Z,102659.16
2023-04-19T17:10:00.980Z,102648.84
2023-04-19T17:12:27.771Z,102651.66
2023-04-19T17:14:54.639Z,102660.00
2023-04-19T17:17:21.739Z,102656.59
2023-04-19T17:19:48.589Z,102655.19
2023-04-19T17:22:16.199Z,102658.25
2023-04-19T17:24:43.464Z,102652.72
2023-04-19T17:27:10.717Z,102649.66
2023-04-19T17:29:37.632Z,102658.06
2023-04-19T17:32:05.083Z,102648.56
2023-04-19T17:34:35.347Z,102655.25
2023-04-19T17:37:03.503Z,102622.34
2023-04-19T17:39:30.443Z,102651.63
2023-04-19T17:41:57.471Z,102656.13
2023-04-19T17:44:24.641Z,102629.88
2023-04-19T17:46:51.616Z,102657.78
2023-04-19T17:49:20.361Z,102629.03
2023-04-19T17:51:48.085Z,102658.56
2023-04-19T17:54:16.070Z,102651.63
2023-04-19T17:56:43.065Z,102657.19
2023-04-19T17:59:09.906Z,102661.06
2023-04-19T18:01:36.978Z,102650.22
2023-04-19T18:04:04.472Z,102654.94
2023-04-19T18:06:31.999Z,102653.84
2023-04-19T18:08:59.134Z,102657.72
2023-04-19T18:11:28.270Z,102664.41
2023-04-19T18:13:55.892Z,102667.97
2023-04-19T18:16:22.882Z,102659.31
2023-04-19T18:18:50.024Z,102666.00
2023-04-19T18:21:19.415Z,102638.34
2023-04-19T18:23:49.338Z,102667.56
2023-04-19T18:26:16.447Z,102668.09
2023-04-19T18:28:43.464Z,102677.13
2023-04-19T18:31:10.700Z,102669.25
2023-04-19T18:33:37.924Z,102676.09
2023-04-19T18:36:06.214Z,102667.97
2023-04-19T18:38:33.165Z,102665.69
2023-04-19T18:41:00.408Z,102668.38
2023-04-19T18:43:30.557Z,102664.94
2023-04-19T18:45:58.230Z,102668.00
2023-04-19T18:48:28.659Z,102668.41
2023-04-19T18:50:57.167Z,102664.78
2023-04-19T18:53:27.921Z,102673.06
2023-04-19T18:55:57.913Z,102661.53
2023-04-19T18:58:26.396Z,102670.47
2023-04-19T19:00:53.494Z,102670.19
2023-04-19T19:03:49.792Z,102668.81
2023-04-19T19:06:10.435Z,102674.75
2023-04-19T19:08:37.867Z,102678.34
2023-04-19T19:13:36.104Z,102673.41
2023-04-19T19:16:03.123Z,102662.44
2023-04-19T19:18:30.039Z,102668.81
2023-04-19T19:21:03.546Z,102666.56
2023-04-19T19:26:01.161Z,102602.44
2023-04-19T19:28:28.148Z,102652.38
2023-04-19T19:30:55.129Z,102656.84
2023-04-19T19:33:22.688Z,102664.47
2023-04-19T19:35:50.253Z,102664.66
2023-04-19T19:38:17.251Z,102656.91
2023-04-19T19:41:20.680Z,102647.56
2023-04-19T19:43:31.245Z,102651.75
2023-04-19T19:45:58.433Z,102643.69
2023-04-19T19:48:25.769Z,102646.09
2023-04-19T19:53:22.582Z,102643.78
2023-04-19T19:55:49.424Z,102639.44
2023-04-19T19:58:42.938Z,102572.63
2023-04-19T20:01:03.713Z,102643.00
2023-04-19T20:03:37.839Z,102640.00
2023-04-19T20:08:41.377Z,102637.25
2023-04-19T20:11:10.793Z,102632.13
2023-04-19T20:13:37.769Z,102645.41
2023-04-19T20:16:04.667Z,102656.38
2023-04-19T20:18:31.600Z,102640.75
2023-04-19T20:20:58.895Z,102649.06
2023-04-19T20:23:26.759Z,102630.44
2023-04-19T20:25:53.712Z,102658.97
2023-04-19T20:28:20.794Z,102666.28
2023-04-19T20:30:47.643Z,102668.31
2023-04-19T20:33:14.574Z,102665.75
2023-04-19T20:35:42.375Z,102630.06
2023-04-19T20:38:09.998Z,102648.47
2023-04-19T20:40:37.426Z,102638.84
2023-04-19T20:43:04.589Z,102643.03
2023-04-19T20:45:31.551Z,102610.56
2023-04-19T20:47:58.810Z,102616.41
2023-04-19T20:50:25.996Z,102593.38
2023-04-19T20:52:52.943Z,102585.97
2023-04-19T20:55:19.765Z,102598.63
2023-04-19T20:57:46.842Z,102585.81
2023-04-19T21:00:16.999Z,102608.38
2023-04-19T21:02:44.843Z,102610.09
2023-04-19T21:05:12.089Z,102615.75
2023-04-19T21:07:39.283Z,102630.78
2023-04-19T21:10:08.046Z,102621.69
2023-04-19T21:12:35.332Z,102599.31
2023-04-19T21:15:04.930Z,102631.41
2023-04-19T21:17:31.718Z,102628.88
2023-04-19T21:19:58.943Z,102603.06
2023-04-19T21:22:25.758Z,102600.34
2023-04-19T21:24:52.421Z,102597.06
2023-04-19T21:27:21.829Z,102594.59
2023-04-19T21:29:48.538Z,102598.25
2023-04-19T21:32:15.524Z,102572.41
2023-04-19T21:34:42.297Z,102561.03
2023-04-19T21:37:08.969Z,102559.69
2023-04-19T21:39:35.781Z,102554.97
2023-04-19T21:42:02.557Z,102530.78
2023-04-19T21:44:29.568Z,102532.31
2023-04-19T21:46:56.418Z,102532.06
2023-04-19T21:49:23.407Z,102531.78
2023-04-19T21:51:51.388Z,102526.53
2023-04-19T21:54:30.638Z,102521.56
2023-04-19T21:57:00.739Z,102518.53
2023-04-19T21:59:29.286Z,102514.91
2023-04-19T22:01:56.041Z,102506.31
2023-04-19T22:04:22.983Z,102505.78
2023-04-19T22:06:49.815Z,102492.97
2023-04-19T22:09:19.721Z,102506.06
2023-04-19T22:11:46.404Z,102491.34
2023-04-19T22:14:13.550Z,102482.47
2023-04-19T22:16:40.550Z,102488.59
2023-04-19T22:19:08.011Z,102489.44
2023-04-19T22:21:34.748Z,102489.97
2023-04-19T22:24:01.501Z,102478.31
2023-04-19T22:26:29.439Z,102480.25
2023-04-19T22:28:56.199Z,102479.97
2023-04-19T22:31:23.007Z,102474.44
2023-04-19T22:33:49.747Z,102472.78
2023-04-19T22:36:16.728Z,102466.63
2023-04-19T22:38:43.766Z,102469.44
2023-04-19T22:41:10.737Z,102466.38
2023-04-19T22:43:38.400Z,102460.25
2023-04-19T22:46:05.724Z,102449.97
2023-04-19T22:48:33.204Z,102448.28
2023-04-19T22:51:01.044Z,102449.41
2023-04-19T22:53:28.063Z,102445.50
2023-04-19T22:55:55.347Z,102412.66
2023-04-19T22:58:22.441Z,102428.22
2023-04-19T23:00:50.634Z,102431.28
2023-04-19T23:03:17.758Z,102438.81
2023-04-19T23:05:44.777Z,102433.25
2023-04-19T23:08:13.810Z,102422.94
2023-04-19T23:10:42.750Z,102437.69
2023-04-19T23:13:12.441Z,102430.72
2023-04-19T23:15:39.586Z,102425.38
2023-04-19T23:18:06.713Z,102420.38
2023-04-19T23:20:33.643Z,102400.38
2023-04-19T23:23:00.823Z,102399.81
2023-04-19T23:25:27.740Z,102397.63
2023-04-19T23:27:54.823Z,102415.97
2023-04-19T23:30:21.954Z,102388.44
2023-04-19T23:32:48.922Z,102383.72
2023-04-19T23:35:15.959Z,102384.81
2023-04-19T23:37:42.868Z,102385.09
2023-04-19T23:40:10.569Z,102372.31
2023-04-19T23:42:38.715Z,102373.72
2023-04-19T23:45:07.083Z,102366.50
2023-04-19T23:47:34.328Z,102369.81
2023-04-19T23:50:01.398Z,102362.59
2023-04-19T23:52:28.373Z,102370.94
2023-04-19T23:54:55.480Z,102367.31
2023-04-19T23:57:23.147Z,102368.69
2023-04-19T23:59:50.390Z,102362.56
